sensor_id;sensor_type;location;lat;lon;timestamp;P1;durP1;ratioP1;P2;durP2;ratioP2
28431;SDS011;15664;51.302;7.744;2023-04-25T00:00:39;31.57;;;28.13;;
28431;SDS011;15664;51.302;7.744;2023-04-25T00:03:04;33.37;;;27.87;;
28431;SDS011;15664;51.302;7.744;2023-04-25T00:05:31;36.40;;;27.98;;
28431;SDS011;15664;51.302;7.744;2023-04-25T00:07:57;37.63;;;28.87;;
28431;SDS011;15664;51.302;7.744;2023-04-25T00:10:22;32.90;;;29.33;;
28431;SDS011;15664;51.302;7.744;2023-04-25T00:12:47;34.35;;;29.95;;
28431;SDS011;15664;51.302;7.744;2023-04-25T00:15:14;37.03;;;31.20;;
28431;SDS011;15664;51.302;7.744;2023-04-25T00:17:39;44.28;;;32.50;;
28431;SDS011;15664;51.302;7.744;2023-04-25T00:20:05;42.53;;;33.00;;
28431;SDS011;15664;51.302;7.744;2023-04-25T00:22:31;40.08;;;33.35;;
28431;SDS011;15664;51.302;7.744;2023-04-25T00:24:58;41.33;;;33.15;;
28431;SDS011;15664;51.302;7.744;2023-04-25T00:27:25;39.10;;;31.00;;
28431;SDS011;15664;51.302;7.744;2023-04-25T00:29:51;34.97;;;27.90;;
28431;SDS011;15664;51.302;7.744;2023-04-25T00:32:16;36.10;;;30.13;;
28431;SDS011;15664;51.302;7.744;2023-04-25T00:34:42;37.08;;;31.58;;
28431;SDS011;15664;51.302;7.744;2023-04-25T00:37:07;45.97;;;33.97;;
28431;SDS011;15664;51.302;7.744;2023-04-25T00:39:33;42.50;;;33.00;;
28431;SDS011;15664;51.302;7.744;2023-04-25T00:41:58;43.75;;;33.92;;
28431;SDS011;15664;51.302;7.744;2023-04-25T00:44:24;39.33;;;33.10;;
28431;SDS011;15664;51.302;7.744;2023-04-25T00:46:49;43.93;;;34.63;;
28431;SDS011;15664;51.302;7.744;2023-04-25T00:49:16;42.80;;;33.78;;
28431;SDS011;15664;51.302;7.744;2023-04-25T00:51:43;43.78;;;34.70;;
28431;SDS011;15664;51.302;7.744;2023-04-25T00:54:10;40.35;;;33.83;;
28431;SDS011;15664;51.302;7.744;2023-04-25T00:56:36;40.63;;;32.80;;
28431;SDS011;15664;51.302;7.744;2023-04-25T00:59:02;43.20;;;34.15;;
28431;SDS011;15664;51.302;7.744;2023-04-25T01:01:27;41.77;;;32.40;;
28431;SDS011;15664;51.302;7.744;2023-04-25T01:03:53;37.80;;;32.13;;
28431;SDS011;15664;51.302;7.744;2023-04-25T01:06:19;43.63;;;33.42;;
28431;SDS011;15664;51.302;7.744;2023-04-25T01:08:44;39.17;;;31.93;;
28431;SDS011;15664;51.302;7.744;2023-04-25T01:11:10;41.53;;;31.50;;
28431;SDS011;15664;51.302;7.744;2023-04-25T01:13:35;39.77;;;32.50;;
28431;SDS011;15664;51.302;7.744;2023-04-25T01:16:02;37.67;;;31.60;;
28431;SDS011;15664;51.302;7.744;2023-04-25T01:18:27;37.17;;;30.83;;
28431;SDS011;15664;51.302;7.744;2023-04-25T01:20:53;40.07;;;30.63;;
28431;SDS011;15664;51.302;7.744;2023-04-25T01:23:20;38.85;;;31.25;;
28431;SDS011;15664;51.302;7.744;2023-04-25T01:25:46;39.00;;;31.35;;
28431;SDS011;15664;51.302;7.744;2023-04-25T01:28:12;34.77;;;28.63;;
28431;SDS011;15664;51.302;7.744;2023-04-25T01:30:37;37.65;;;31.95;;
28431;SDS011;15664;51.302;7.744;2023-04-25T01:33:04;36.50;;;30.90;;
28431;SDS011;15664;51.302;7.744;2023-04-25T01:35:30;37.75;;;30.67;;
28431;SDS011;15664;51.302;7.744;2023-04-25T01:37:57;38.40;;;31.60;;
28431;SDS011;15664;51.302;7.744;2023-04-25T01:40:22;42.90;;;34.20;;
28431;SDS011;15664;51.302;7.744;2023-04-25T01:42:49;42.90;;;33.58;;
28431;SDS011;15664;51.302;7.744;2023-04-25T01:45:15;40.83;;;31.80;;
28431;SDS011;15664;51.302;7.744;2023-04-25T01:47:41;40.50;;;33.15;;
28431;SDS011;15664;51.302;7.744;2023-04-25T01:50:09;35.28;;;29.58;;
28431;SDS011;15664;51.302;7.744;2023-04-25T01:52:35;32.42;;;28.90;;
28431;SDS011;15664;51.302;7.744;2023-04-25T01:55:01;29.43;;;26.43;;
28431;SDS011;15664;51.302;7.744;2023-04-25T01:57:29;27.73;;;24.90;;
28431;SDS011;15664;51.302;7.744;2023-04-25T01:59:55;27.40;;;24.47;;
28431;SDS011;15664;51.302;7.744;2023-04-25T02:02:39;28.33;;;25.48;;
28431;SDS011;15664;51.302;7.744;2023-04-25T02:05:14;32.17;;;26.33;;
28431;SDS011;15664;51.302;7.744;2023-04-25T02:07:41;35.30;;;28.47;;
28431;SDS011;15664;51.302;7.744;2023-04-25T02:10:07;30.05;;;25.75;;
28431;SDS011;15664;51.302;7.744;2023-04-25T02:12:37;28.57;;;25.60;;
28431;SDS011;15664;51.302;7.744;2023-04-25T02:15:15;38.28;;;28.75;;
28431;SDS011;15664;51.302;7.744;2023-04-25T02:17:54;36.65;;;26.88;;
28431;SDS011;15664;51.302;7.744;2023-04-25T02:20:20;28.02;;;25.08;;
28431;SDS011;15664;51.302;7.744;2023-04-25T02:22:46;30.37;;;26.83;;
28431;SDS011;15664;51.302;7.744;2023-04-25T02:25:12;28.17;;;25.33;;
28431;SDS011;15664;51.302;7.744;2023-04-25T02:27:38;31.80;;;24.47;;
28431;SDS011;15664;51.302;7.744;2023-04-25T02:30:04;34.30;;;22.83;;
28431;SDS011;15664;51.302;7.744;2023-04-25T02:32:32;27.77;;;22.67;;
28431;SDS011;15664;51.302;7.744;2023-04-25T02:35:00;28.63;;;24.10;;
28431;SDS011;15664;51.302;7.744;2023-04-25T02:37:30;27.17;;;23.70;;
28431;SDS011;15664;51.302;7.744;2023-04-25T02:39:55;26.87;;;23.97;;
28431;SDS011;15664;51.302;7.744;2023-04-25T02:42:21;30.85;;;25.10;;
28431;SDS011;15664;51.302;7.744;2023-04-25T02:44:46;26.53;;;23.93;;
28431;SDS011;15664;51.302;7.744;2023-04-25T02:47:12;31.33;;;25.43;;
28431;SDS011;15664;51.302;7.744;2023-04-25T02:49:37;29.83;;;26.55;;
28431;SDS011;15664;51.302;7.744;2023-04-25T02:52:03;28.67;;;25.67;;
28431;SDS011;15664;51.302;7.744;2023-04-25T02:54:29;29.77;;;26.07;;
28431;SDS011;15664;51.302;7.744;2023-04-25T02:56:56;29.83;;;26.35;;
28431;SDS011;15664;51.302;7.744;2023-04-25T02:59:26;27.48;;;24.02;;
28431;SDS011;15664;51.302;7.744;2023-04-25T03:01:51;27.23;;;24.47;;
28431;SDS011;15664;51.302;7.744;2023-04-25T03:04:16;26.07;;;23.33;;
28431;SDS011;15664;51.302;7.744;2023-04-25T03:06:44;24.38;;;21.75;;
28431;SDS011;15664;51.302;7.744;2023-04-25T03:09:09;27.20;;;23.43;;
28431;SDS011;15664;51.302;7.744;2023-04-25T03:11:36;31.70;;;25.30;;
28431;SDS011;15664;51.302;7.744;2023-04-25T03:14:02;24.08;;;21.27;;
28431;SDS011;15664;51.302;7.744;2023-04-25T03:16:27;26.27;;;23.50;;
28431;SDS011;15664;51.302;7.744;2023-04-25T03:18:53;28.48;;;24.52;;
28431;SDS011;15664;51.302;7.744;2023-04-25T03:21:19;21.80;;;19.63;;
28431;SDS011;15664;51.302;7.744;2023-04-25T03:23:44;24.33;;;21.27;;
28431;SDS011;15664;51.302;7.744;2023-04-25T03:26:10;25.23;;;22.63;;
28431;SDS011;15664;51.302;7.744;2023-04-25T03:28:36;27.33;;;23.33;;
28431;SDS011;15664;51.302;7.744;2023-04-25T03:31:01;28.37;;;23.93;;
28431;SDS011;15664;51.302;7.744;2023-04-25T03:33:26;26.27;;;23.57;;
28431;SDS011;15664;51.302;7.744;2023-04-25T03:35:52;24.60;;;22.10;;
28431;SDS011;15664;51.302;7.744;2023-04-25T03:38:18;25.67;;;22.10;;
28431;SDS011;15664;51.302;7.744;2023-04-25T03:40:44;26.23;;;23.45;;
28431;SDS011;15664;51.302;7.744;2023-04-25T03:43:16;26.33;;;23.55;;
28431;SDS011;15664;51.302;7.744;2023-04-25T03:45:48;25.75;;;23.05;;
28431;SDS011;15664;51.302;7.744;2023-04-25T03:48:15;27.73;;;23.10;;
28431;SDS011;15664;51.302;7.744;2023-04-25T03:50:40;26.77;;;24.00;;
28431;SDS011;15664;51.302;7.744;2023-04-25T03:53:05;27.60;;;24.90;;
28431;SDS011;15664;51.302;7.744;2023-04-25T03:55:48;27.45;;;24.58;;
28431;SDS011;15664;51.302;7.744;2023-04-25T03:58:13;27.67;;;24.87;;
28431;SDS011;15664;51.302;7.744;2023-04-25T04:00:39;29.47;;;25.70;;
28431;SDS011;15664;51.302;7.744;2023-04-25T04:03:04;29.00;;;25.90;;
28431;SDS011;15664;51.302;7.744;2023-04-25T04:05:30;28.88;;;25.80;;
28431;SDS011;15664;51.302;7.744;2023-04-25T04:07:56;29.17;;;26.17;;
28431;SDS011;15664;51.302;7.744;2023-04-25T04:10:21;29.90;;;26.88;;
28431;SDS011;15664;51.302;7.744;2023-04-25T04:12:47;28.53;;;25.53;;
28431;SDS011;15664;51.302;7.744;2023-04-25T04:15:12;31.07;;;25.07;;
28431;SDS011;15664;51.302;7.744;2023-04-25T04:17:38;23.67;;;21.33;;
28431;SDS011;15664;51.302;7.744;2023-04-25T04:20:04;24.02;;;21.60;;
28431;SDS011;15664;51.302;7.744;2023-04-25T04:22:31;23.20;;;18.93;;
28431;SDS011;15664;51.302;7.744;2023-04-25T04:25:00;22.60;;;19.48;;
28431;SDS011;15664;51.302;7.744;2023-04-25T04:28:01;22.67;;;20.52;;
28431;SDS011;15664;51.302;7.744;2023-04-25T04:30:47;24.00;;;21.73;;
28431;SDS011;15664;51.302;7.744;2023-04-25T04:33:13;25.33;;;22.77;;
28431;SDS011;15664;51.302;7.744;2023-04-25T04:35:42;26.60;;;23.80;;
28431;SDS011;15664;51.302;7.744;2023-04-25T04:38:08;24.60;;;21.52;;
28431;SDS011;15664;51.302;7.744;2023-04-25T04:40:35;23.92;;;21.48;;
28431;SDS011;15664;51.302;7.744;2023-04-25T04:43:11;23.83;;;21.23;;
28431;SDS011;15664;51.302;7.744;2023-04-25T04:45:56;23.05;;;20.55;;
28431;SDS011;15664;51.302;7.744;2023-04-25T04:48:39;44.92;;;23.13;;
28431;SDS011;15664;51.302;7.744;2023-04-25T04:51:28;27.70;;;19.92;;
28431;SDS011;15664;51.302;7.744;2023-04-25T04:54:07;21.48;;;19.13;;
28431;SDS011;15664;51.302;7.744;2023-04-25T04:56:45;22.87;;;20.17;;
28431;SDS011;15664;51.302;7.744;2023-04-25T04:59:23;22.17;;;19.80;;
28431;SDS011;15664;51.302;7.744;2023-04-25T05:02:03;20.92;;;18.70;;
28431;SDS011;15664;51.302;7.744;2023-04-25T05:04:55;26.45;;;18.00;;
28431;SDS011;15664;51.302;7.744;2023-04-25T05:07:56;24.08;;;13.35;;
28431;SDS011;15664;51.302;7.744;2023-04-25T05:10:52;15.13;;;13.50;;
28431;SDS011;15664;51.302;7.744;2023-04-25T05:13:35;15.40;;;11.13;;
28431;SDS011;15664;51.302;7.744;2023-04-25T05:16:11;15.40;;;13.23;;
28431;SDS011;15664;51.302;7.744;2023-04-25T05:18:50;14.23;;;12.63;;
28431;SDS011;15664;51.302;7.744;2023-04-25T05:21:27;15.13;;;13.63;;
28431;SDS011;15664;51.302;7.744;2023-04-25T05:24:11;19.40;;;17.47;;
28431;SDS011;15664;51.302;7.744;2023-04-25T05:27:03;16.33;;;14.65;;
28431;SDS011;15664;51.302;7.744;2023-04-25T05:29:43;18.65;;;16.95;;
28431;SDS011;15664;51.302;7.744;2023-04-25T05:32:22;18.65;;;16.77;;
28431;SDS011;15664;51.302;7.744;2023-04-25T05:34:48;14.52;;;12.98;;
28431;SDS011;15664;51.302;7.744;2023-04-25T05:37:21;13.87;;;12.50;;
28431;SDS011;15664;51.302;7.744;2023-04-25T05:39:56;11.55;;;10.40;;
28431;SDS011;15664;51.302;7.744;2023-04-25T05:42:45;14.13;;;12.68;;
28431;SDS011;15664;51.302;7.744;2023-04-25T05:45:30;15.35;;;11.68;;
28431;SDS011;15664;51.302;7.744;2023-04-25T05:48:26;13.05;;;11.15;;
28431;SDS011;15664;51.302;7.744;2023-04-25T05:51:15;12.10;;;10.93;;
28431;SDS011;15664;51.302;7.744;2023-04-25T05:54:05;14.20;;;10.20;;
28431;SDS011;15664;51.302;7.744;2023-04-25T05:56:32;12.85;;;8.95;;
28431;SDS011;15664;51.302;7.744;2023-04-25T05:58:57;7.53;;;6.70;;
28431;SDS011;15664;51.302;7.744;2023-04-25T06:01:23;10.10;;;6.40;;
28431;SDS011;15664;51.302;7.744;2023-04-25T06:03:48;11.17;;;6.77;;
28431;SDS011;15664;51.302;7.744;2023-04-25T06:06:13;7.87;;;5.30;;
28431;SDS011;15664;51.302;7.744;2023-04-25T06:08:39;15.18;;;5.00;;
28431;SDS011;15664;51.302;7.744;2023-04-25T06:11:05;13.30;;;5.70;;
28431;SDS011;15664;51.302;7.744;2023-04-25T06:13:31;7.88;;;5.50;;
28431;SDS011;15664;51.302;7.744;2023-04-25T06:15:56;8.17;;;5.20;;
28431;SDS011;15664;51.302;7.744;2023-04-25T06:18:22;6.93;;;5.20;;
28431;SDS011;15664;51.302;7.744;2023-04-25T06:20:48;9.85;;;5.50;;
28431;SDS011;15664;51.302;7.744;2023-04-25T06:23:14;10.67;;;5.00;;
28431;SDS011;15664;51.302;7.744;2023-04-25T06:25:49;6.90;;;3.90;;
28431;SDS011;15664;51.302;7.744;2023-04-25T06:28:15;12.38;;;4.53;;
28431;SDS011;15664;51.302;7.744;2023-04-25T06:30:42;8.23;;;3.83;;
28431;SDS011;15664;51.302;7.744;2023-04-25T06:33:11;10.80;;;4.53;;
28431;SDS011;15664;51.302;7.744;2023-04-25T06:35:38;11.82;;;3.45;;
28431;SDS011;15664;51.302;7.744;2023-04-25T06:38:06;9.60;;;3.63;;
28431;SDS011;15664;51.302;7.744;2023-04-25T06:40:31;12.67;;;3.40;;
28431;SDS011;15664;51.302;7.744;2023-04-25T06:42:57;9.10;;;3.58;;
28431;SDS011;15664;51.302;7.744;2023-04-25T06:45:44;12.33;;;3.97;;
28431;SDS011;15664;51.302;7.744;2023-04-25T06:48:09;13.95;;;5.03;;
28431;SDS011;15664;51.302;7.744;2023-04-25T06:50:34;9.40;;;3.83;;
28431;SDS011;15664;51.302;7.744;2023-04-25T06:53:00;21.57;;;4.00;;
28431;SDS011;15664;51.302;7.744;2023-04-25T06:55:27;13.55;;;3.83;;
28431;SDS011;15664;51.302;7.744;2023-04-25T06:58:04;7.38;;;3.35;;
28431;SDS011;15664;51.302;7.744;2023-04-25T07:00:52;10.05;;;4.20;;
28431;SDS011;15664;51.302;7.744;2023-04-25T07:03:19;10.60;;;3.35;;
28431;SDS011;15664;51.302;7.744;2023-04-25T07:05:45;10.20;;;3.30;;
28431;SDS011;15664;51.302;7.744;2023-04-25T07:08:11;12.02;;;2.67;;
28431;SDS011;15664;51.302;7.744;2023-04-25T07:10:37;19.37;;;6.73;;
28431;SDS011;15664;51.302;7.744;2023-04-25T07:13:02;10.13;;;3.67;;
28431;SDS011;15664;51.302;7.744;2023-04-25T07:15:29;14.27;;;4.83;;
28431;SDS011;15664;51.302;7.744;2023-04-25T07:17:55;16.13;;;4.72;;
28431;SDS011;15664;51.302;7.744;2023-04-25T07:20:20;10.40;;;3.37;;
28431;SDS011;15664;51.302;7.744;2023-04-25T07:22:46;8.00;;;2.90;;
28431;SDS011;15664;51.302;7.744;2023-04-25T07:25:12;11.30;;;4.38;;
28431;SDS011;15664;51.302;7.744;2023-04-25T07:27:37;9.10;;;2.92;;
28431;SDS011;15664;51.302;7.744;2023-04-25T07:30:10;8.98;;;2.83;;
28431;SDS011;15664;51.302;7.744;2023-04-25T07:32:38;24.38;;;6.63;;
28431;SDS011;15664;51.302;7.744;2023-04-25T07:35:03;5.85;;;2.30;;
28431;SDS011;15664;51.302;7.744;2023-04-25T07:37:29;7.97;;;3.25;;
28431;SDS011;15664;51.302;7.744;2023-04-25T07:40:02;6.85;;;2.90;;
28431;SDS011;15664;51.302;7.744;2023-04-25T07:42:29;10.35;;;3.58;;
28431;SDS011;15664;51.302;7.744;2023-04-25T07:44:55;5.97;;;2.87;;
28431;SDS011;15664;51.302;7.744;2023-04-25T07:47:21;8.15;;;3.20;;
28431;SDS011;15664;51.302;7.744;2023-04-25T07:49:46;7.97;;;3.73;;
28431;SDS011;15664;51.302;7.744;2023-04-25T07:52:11;10.10;;;3.43;;
28431;SDS011;15664;51.302;7.744;2023-04-25T07:54:42;6.18;;;2.55;;
28431;SDS011;15664;51.302;7.744;2023-04-25T07:57:14;7.95;;;3.45;;
28431;SDS011;15664;51.302;7.744;2023-04-25T07:59:40;7.50;;;2.90;;
28431;SDS011;15664;51.302;7.744;2023-04-25T08:02:05;8.97;;;3.17;;
28431;SDS011;15664;51.302;7.744;2023-04-25T08:04:31;12.73;;;4.28;;
28431;SDS011;15664;51.302;7.744;2023-04-25T08:07:01;11.57;;;4.22;;
28431;SDS011;15664;51.302;7.744;2023-04-25T08:09:29;15.70;;;3.70;;
28431;SDS011;15664;51.302;7.744;2023-04-25T08:12:00;7.25;;;3.03;;
28431;SDS011;15664;51.302;7.744;2023-04-25T08:14:30;5.68;;;2.20;;
28431;SDS011;15664;51.302;7.744;2023-04-25T08:17:02;7.45;;;2.40;;
28431;SDS011;15664;51.302;7.744;2023-04-25T08:19:28;11.52;;;3.42;;
28431;SDS011;15664;51.302;7.744;2023-04-25T08:21:54;6.93;;;2.97;;
28431;SDS011;15664;51.302;7.744;2023-04-25T08:24:27;9.60;;;2.72;;
28431;SDS011;15664;51.302;7.744;2023-04-25T08:26:53;13.10;;;3.35;;
28431;SDS011;15664;51.302;7.744;2023-04-25T08:29:20;12.67;;;3.80;;
28431;SDS011;15664;51.302;7.744;2023-04-25T08:31:46;11.83;;;3.17;;
28431;SDS011;15664;51.302;7.744;2023-04-25T08:34:12;12.43;;;2.33;;
28431;SDS011;15664;51.302;7.744;2023-04-25T08:36:47;6.55;;;2.78;;
28431;SDS011;15664;51.302;7.744;2023-04-25T08:39:19;11.45;;;3.20;;
28431;SDS011;15664;51.302;7.744;2023-04-25T08:42:06;5.10;;;2.10;;
28431;SDS011;15664;51.302;7.744;2023-04-25T08:44:33;4.73;;;1.93;;
28431;SDS011;15664;51.302;7.744;2023-04-25T08:46:58;24.73;;;3.67;;
28431;SDS011;15664;51.302;7.744;2023-04-25T08:49:31;9.88;;;3.15;;
28431;SDS011;15664;51.302;7.744;2023-04-25T08:51:57;12.87;;;2.93;;
28431;SDS011;15664;51.302;7.744;2023-04-25T08:54:24;7.82;;;2.65;;
28431;SDS011;15664;51.302;7.744;2023-04-25T08:56:53;8.13;;;3.22;;
28431;SDS011;15664;51.302;7.744;2023-04-25T08:59:19;6.82;;;2.22;;
28431;SDS011;15664;51.302;7.744;2023-04-25T09:01:45;4.67;;;1.63;;
28431;SDS011;15664;51.302;7.744;2023-04-25T09:04:12;8.80;;;2.38;;
28431;SDS011;15664;51.302;7.744;2023-04-25T09:06:38;10.30;;;2.30;;
28431;SDS011;15664;51.302;7.744;2023-04-25T09:09:04;15.30;;;2.27;;
28431;SDS011;15664;51.302;7.744;2023-04-25T09:11:31;8.07;;;2.73;;
28431;SDS011;15664;51.302;7.744;2023-04-25T09:14:11;8.88;;;2.65;;
28431;SDS011;15664;51.302;7.744;2023-04-25T09:16:58;6.00;;;2.35;;
28431;SDS011;15664;51.302;7.744;2023-04-25T09:19:46;9.70;;;2.03;;
28431;SDS011;15664;51.302;7.744;2023-04-25T09:22:16;10.10;;;3.08;;
28431;SDS011;15664;51.302;7.744;2023-04-25T09:24:43;5.40;;;2.03;;
28431;SDS011;15664;51.302;7.744;2023-04-25T09:27:10;6.65;;;2.40;;
28431;SDS011;15664;51.302;7.744;2023-04-25T09:29:37;6.03;;;2.45;;
28431;SDS011;15664;51.302;7.744;2023-04-25T09:32:20;10.82;;;2.22;;
28431;SDS011;15664;51.302;7.744;2023-04-25T09:34:47;8.23;;;2.88;;
28431;SDS011;15664;51.302;7.744;2023-04-25T09:40:09;6.18;;;2.28;;
28431;SDS011;15664;51.302;7.744;2023-04-25T09:42:49;10.05;;;2.53;;
28431;SDS011;15664;51.302;7.744;2023-04-25T09:45:14;9.25;;;2.67;;
28431;SDS011;15664;51.302;7.744;2023-04-25T09:47:41;9.60;;;2.67;;
28431;SDS011;15664;51.302;7.744;2023-04-25T09:50:14;4.97;;;1.70;;
28431;SDS011;15664;51.302;7.744;2023-04-25T09:52:40;7.10;;;2.45;;
28431;SDS011;15664;51.302;7.744;2023-04-25T09:55:14;5.65;;;1.90;;
28431;SDS011;15664;51.302;7.744;2023-04-25T09:57:42;6.60;;;2.33;;
28431;SDS011;15664;51.302;7.744;2023-04-25T10:00:09;8.53;;;2.60;;
28431;SDS011;15664;51.302;7.744;2023-04-25T10:02:42;5.70;;;2.40;;
28431;SDS011;15664;51.302;7.744;2023-04-25T10:05:09;7.50;;;2.17;;
28431;SDS011;15664;51.302;7.744;2023-04-25T10:07:39;5.93;;;2.13;;
28431;SDS011;15664;51.302;7.744;2023-04-25T10:10:09;4.82;;;1.60;;
28431;SDS011;15664;51.302;7.744;2023-04-25T10:12:37;7.57;;;2.57;;
28431;SDS011;15664;51.302;7.744;2023-04-25T10:15:04;8.52;;;2.40;;
28431;SDS011;15664;51.302;7.744;2023-04-25T10:17:30;5.68;;;2.40;;
28431;SDS011;15664;51.302;7.744;2023-04-25T10:19:56;7.03;;;2.23;;
28431;SDS011;15664;51.302;7.744;2023-04-25T10:22:32;4.68;;;1.58;;
28431;SDS011;15664;51.302;7.744;2023-04-25T10:24:59;7.80;;;2.85;;
28431;SDS011;15664;51.302;7.744;2023-04-25T10:27:27;4.73;;;1.93;;
28431;SDS011;15664;51.302;7.744;2023-04-25T10:32:31;6.45;;;1.83;;
28431;SDS011;15664;51.302;7.744;2023-04-25T10:35:19;5.03;;;1.65;;
28431;SDS011;15664;51.302;7.744;2023-04-25T10:37:57;4.50;;;1.60;;
28431;SDS011;15664;51.302;7.744;2023-04-25T10:40:23;7.97;;;2.07;;
28431;SDS011;15664;51.302;7.744;2023-04-25T10:42:48;8.38;;;2.40;;
28431;SDS011;15664;51.302;7.744;2023-04-25T10:45:13;5.77;;;2.20;;
28431;SDS011;15664;51.302;7.744;2023-04-25T10:47:43;6.18;;;2.20;;
28431;SDS011;15664;51.302;7.744;2023-04-25T10:50:09;5.93;;;1.97;;
28431;SDS011;15664;51.302;7.744;2023-04-25T10:52:35;6.88;;;2.67;;
28431;SDS011;15664;51.302;7.744;2023-04-25T10:55:02;7.97;;;3.03;;
28431;SDS011;15664;51.302;7.744;2023-04-25T10:57:41;9.93;;;3.13;;
28431;SDS011;15664;51.302;7.744;2023-04-25T11:02:45;8.40;;;2.42;;
28431;SDS011;15664;51.302;7.744;2023-04-25T11:07:56;7.90;;;2.50;;
28431;SDS011;15664;51.302;7.744;2023-04-25T11:10:28;10.03;;;2.30;;
28431;SDS011;15664;51.302;7.744;2023-04-25T11:12:54;5.78;;;2.20;;
28431;SDS011;15664;51.302;7.744;2023-04-25T11:15:20;6.05;;;2.40;;
28431;SDS011;15664;51.302;7.744;2023-04-25T11:17:45;6.33;;;2.20;;
28431;SDS011;15664;51.302;7.744;2023-04-25T11:20:11;4.85;;;1.83;;
28431;SDS011;15664;51.302;7.744;2023-04-25T11:22:38;4.97;;;2.17;;
28431;SDS011;15664;51.302;7.744;2023-04-25T11:25:06;6.40;;;2.40;;
28431;SDS011;15664;51.302;7.744;2023-04-25T11:27:32;5.82;;;2.20;;
28431;SDS011;15664;51.302;7.744;2023-04-25T11:29:57;4.77;;;2.10;;
28431;SDS011;15664;51.302;7.744;2023-04-25T11:32:23;8.63;;;2.10;;
28431;SDS011;15664;51.302;7.744;2023-04-25T11:34:48;4.55;;;1.92;;
28431;SDS011;15664;51.302;7.744;2023-04-25T11:37:13;5.67;;;2.23;;
28431;SDS011;15664;51.302;7.744;2023-04-25T11:39:42;5.03;;;1.75;;
28431;SDS011;15664;51.302;7.744;2023-04-25T11:42:08;5.63;;;1.90;;
28431;SDS011;15664;51.302;7.744;2023-04-25T11:44:34;8.00;;;2.13;;
28431;SDS011;15664;51.302;7.744;2023-04-25T11:46:59;4.72;;;1.92;;
28431;SDS011;15664;51.302;7.744;2023-04-25T11:49:25;6.00;;;2.20;;
28431;SDS011;15664;51.302;7.744;2023-04-25T11:51:55;7.15;;;1.90;;
28431;SDS011;15664;51.302;7.744;2023-04-25T11:54:20;4.63;;;1.70;;
28431;SDS011;15664;51.302;7.744;2023-04-25T11:56:45;8.33;;;2.40;;
28431;SDS011;15664;51.302;7.744;2023-04-25T11:59:12;6.57;;;2.27;;
28431;SDS011;15664;51.302;7.744;2023-04-25T12:01:40;5.65;;;1.98;;
28431;SDS011;15664;51.302;7.744;2023-04-25T12:04:13;5.47;;;1.95;;
28431;SDS011;15664;51.302;7.744;2023-04-25T12:06:39;15.13;;;2.67;;
28431;SDS011;15664;51.302;7.744;2023-04-25T12:09:06;5.53;;;2.03;;
28431;SDS011;15664;51.302;7.744;2023-04-25T12:11:32;5.63;;;2.00;;
28431;SDS011;15664;51.302;7.744;2023-04-25T12:14:05;6.50;;;2.00;;
28431;SDS011;15664;51.302;7.744;2023-04-25T12:16:40;6.27;;;2.43;;
28431;SDS011;15664;51.302;7.744;2023-04-25T12:19:06;7.35;;;2.45;;
28431;SDS011;15664;51.302;7.744;2023-04-25T12:21:32;5.03;;;2.10;;
28431;SDS011;15664;51.302;7.744;2023-04-25T12:24:08;3.83;;;1.60;;
28431;SDS011;15664;51.302;7.744;2023-04-25T12:26:50;5.50;;;2.17;;
28431;SDS011;15664;51.302;7.744;2023-04-25T12:29:20;4.93;;;1.98;;
28431;SDS011;15664;51.302;7.744;2023-04-25T12:31:46;6.03;;;1.92;;
28431;SDS011;15664;51.302;7.744;2023-04-25T12:34:11;9.30;;;2.00;;
28431;SDS011;15664;51.302;7.744;2023-04-25T12:36:37;5.63;;;2.03;;
28431;SDS011;15664;51.302;7.744;2023-04-25T12:39:03;4.72;;;1.80;;
28431;SDS011;15664;51.302;7.744;2023-04-25T12:41:29;17.17;;;2.60;;
28431;SDS011;15664;51.302;7.744;2023-04-25T12:43:55;6.60;;;2.38;;
28431;SDS011;15664;51.302;7.744;2023-04-25T12:46:20;6.43;;;2.03;;
28431;SDS011;15664;51.302;7.744;2023-04-25T12:48:45;6.57;;;2.17;;
28431;SDS011;15664;51.302;7.744;2023-04-25T12:51:11;6.65;;;1.50;;
28431;SDS011;15664;51.302;7.744;2023-04-25T12:53:37;4.63;;;1.50;;
28431;SDS011;15664;51.302;7.744;2023-04-25T12:56:04;5.18;;;1.58;;
28431;SDS011;15664;51.302;7.744;2023-04-25T12:58:29;6.43;;;2.60;;
28431;SDS011;15664;51.302;7.744;2023-04-25T13:00:54;6.30;;;1.97;;
28431;SDS011;15664;51.302;7.744;2023-04-25T13:03:20;3.93;;;1.63;;
28431;SDS011;15664;51.302;7.744;2023-04-25T13:05:46;5.78;;;2.10;;
28431;SDS011;15664;51.302;7.744;2023-04-25T13:08:12;4.10;;;1.65;;
28431;SDS011;15664;51.302;7.744;2023-04-25T13:10:37;4.20;;;1.50;;
28431;SDS011;15664;51.302;7.744;2023-04-25T13:13:04;4.43;;;2.05;;
28431;SDS011;15664;51.302;7.744;2023-04-25T13:15:29;4.28;;;1.65;;
28431;SDS011;15664;51.302;7.744;2023-04-25T13:17:55;4.80;;;1.53;;
28431;SDS011;15664;51.302;7.744;2023-04-25T13:20:21;4.07;;;1.83;;
28431;SDS011;15664;51.302;7.744;2023-04-25T13:22:47;4.75;;;1.88;;
28431;SDS011;15664;51.302;7.744;2023-04-25T13:25:13;6.20;;;2.13;;
28431;SDS011;15664;51.302;7.744;2023-04-25T13:27:38;3.90;;;1.70;;
28431;SDS011;15664;51.302;7.744;2023-04-25T13:30:06;4.13;;;1.60;;
28431;SDS011;15664;51.302;7.744;2023-04-25T13:32:37;3.35;;;1.50;;
28431;SDS011;15664;51.302;7.744;2023-04-25T13:35:03;5.70;;;2.10;;
28431;SDS011;15664;51.302;7.744;2023-04-25T13:37:31;3.05;;;1.48;;
28431;SDS011;15664;51.302;7.744;2023-04-25T13:39:59;5.10;;;1.73;;
28431;SDS011;15664;51.302;7.744;2023-04-25T13:42:25;6.68;;;1.45;;
28431;SDS011;15664;51.302;7.744;2023-04-25T13:44:50;6.67;;;2.30;;
28431;SDS011;15664;51.302;7.744;2023-04-25T13:47:16;4.00;;;1.40;;
28431;SDS011;15664;51.302;7.744;2023-04-25T13:49:41;6.68;;;2.22;;
28431;SDS011;15664;51.302;7.744;2023-04-25T13:52:06;4.43;;;1.53;;
28431;SDS011;15664;51.302;7.744;2023-04-25T13:54:33;5.53;;;1.85;;
28431;SDS011;15664;51.302;7.744;2023-04-25T13:56:58;9.35;;;2.22;;
28431;SDS011;15664;51.302;7.744;2023-04-25T13:59:24;4.77;;;1.90;;
28431;SDS011;15664;51.302;7.744;2023-04-25T14:01:50;3.97;;;1.65;;
28431;SDS011;15664;51.302;7.744;2023-04-25T14:04:16;5.23;;;1.83;;
28431;SDS011;15664;51.302;7.744;2023-04-25T14:06:41;5.22;;;1.80;;
28431;SDS011;15664;51.302;7.744;2023-04-25T14:09:07;3.83;;;1.30;;
28431;SDS011;15664;51.302;7.744;2023-04-25T14:11:38;3.70;;;1.60;;
28431;SDS011;15664;51.302;7.744;2023-04-25T14:14:04;4.57;;;1.70;;
28431;SDS011;15664;51.302;7.744;2023-04-25T14:16:29;4.38;;;1.77;;
28431;SDS011;15664;51.302;7.744;2023-04-25T14:18:55;5.07;;;1.90;;
28431;SDS011;15664;51.302;7.744;2023-04-25T14:21:21;6.82;;;1.52;;
28431;SDS011;15664;51.302;7.744;2023-04-25T14:23:46;5.47;;;1.73;;
28431;SDS011;15664;51.302;7.744;2023-04-25T14:26:12;4.53;;;1.50;;
28431;SDS011;15664;51.302;7.744;2023-04-25T14:28:38;3.25;;;1.40;;
28431;SDS011;15664;51.302;7.744;2023-04-25T14:31:03;4.67;;;1.83;;
28431;SDS011;15664;51.302;7.744;2023-04-25T14:33:28;6.40;;;2.17;;
28431;SDS011;15664;51.302;7.744;2023-04-25T14:35:54;4.20;;;1.43;;
28431;SDS011;15664;51.302;7.744;2023-04-25T14:38:19;5.40;;;1.75;;
28431;SDS011;15664;51.302;7.744;2023-04-25T14:40:48;3.87;;;1.70;;
28431;SDS011;15664;51.302;7.744;2023-04-25T14:43:13;5.07;;;1.55;;
28431;SDS011;15664;51.302;7.744;2023-04-25T14:45:38;3.50;;;1.30;;
28431;SDS011;15664;51.302;7.744;2023-04-25T14:48:04;4.00;;;1.97;;
28431;SDS011;15664;51.302;7.744;2023-04-25T14:50:30;5.40;;;1.90;;
28431;SDS011;15664;51.302;7.744;2023-04-25T14:52:55;4.65;;;1.70;;
28431;SDS011;15664;51.302;7.744;2023-04-25T14:55:23;5.30;;;2.22;;